Terminal Aerodrome Forecast
Issued by NWS

Home | Current Version | Previous Version | Text Only | Print | Product List | Glossary On
Versions: 1 2 3 4 5 6 7 8 9 10 11 12 13 14
000
FTUS42 KMLB 271122
TAFTIX
TAF
KTIX 271122Z 2712/2812 08007KT P6SM VCSH SCT035 SCT070
     FM271500 07012G18KT P6SM VCSH SCT035 SCT070
     FM280200 05002KT P6SM FEW020=

USA.gov is the U.S. government's official web portal to all federal, state and local government web resources and services.